createdAt,value
2023-02-28T00:03:36.385Z,-0.76
2023-02-28T00:06:23.666Z,-0.91
2023-02-28T00:09:13.514Z,-0.85
2023-02-28T00:12:00.639Z,-0.80
2023-02-28T00:14:47.837Z,-0.90
2023-02-28T00:17:35.127Z,-0.74
2023-02-28T00:20:28.124Z,-0.85
2023-02-28T00:23:18.241Z,-0.89
2023-02-28T00:26:05.840Z,-0.88
2023-02-28T00:28:54.020Z,-0.87
2023-02-28T00:31:41.212Z,-1.06
2023-02-28T00:34:28.292Z,-1.07
2023-02-28T00:37:15.474Z,-0.97
2023-02-28T00:40:03.400Z,-1.00
2023-02-28T00:42:50.472Z,-1.06
2023-02-28T00:45:37.606Z,-1.10
2023-02-28T00:48:24.743Z,-1.14
2023-02-28T00:51:11.989Z,-1.11
2023-02-28T00:53:59.073Z,-1.27
2023-02-28T00:56:47.112Z,-1.55
2023-02-28T00:59:34.207Z,-1.57
2023-02-28T01:02:23.434Z,-1.36
2023-02-28T01:05:10.595Z,-1.42
2023-02-28T01:08:00.123Z,-1.41
2023-02-28T01:10:47.280Z,-1.37
2023-02-28T01:13:34.339Z,-1.37
2023-02-28T01:16:21.468Z,-1.54
2023-02-28T01:19:08.617Z,-1.53
2023-02-28T01:21:55.780Z,-1.68
2023-02-28T01:24:42.899Z,-1.89
2023-02-28T01:27:30.127Z,-1.53
2023-02-28T01:30:17.438Z,-1.67
2023-02-28T01:33:04.610Z,-1.65
2023-02-28T01:35:59.748Z,-1.70
2023-02-28T01:38:47.983Z,-1.82
2023-02-28T01:41:36.105Z,-2.02
2023-02-28T01:44:56.859Z,-2.01
2023-02-28T01:47:45.041Z,-1.97
2023-02-28T01:50:38.630Z,-2.14
2023-02-28T01:53:33.615Z,-2.21
2023-02-28T01:56:27.705Z,-2.20
2023-02-28T01:59:30.967Z,-2.15
2023-02-28T02:02:20.387Z,-2.08
2023-02-28T02:05:10.530Z,-2.09
2023-02-28T02:07:58.588Z,-2.10
2023-02-28T02:10:50.373Z,-2.14
2023-02-28T02:13:53.828Z,-2.02
2023-02-28T02:17:17.282Z,-2.16
2023-02-28T02:20:13.458Z,-2.10
2023-02-28T02:23:48.381Z,-2.19
2023-02-28T02:26:41.271Z,-2.11
2023-02-28T02:30:04.318Z,-2.09
2023-02-28T02:33:40.574Z,-2.14
2023-02-28T02:36:30.062Z,-2.06
2023-02-28T02:39:51.251Z,-2.07
2023-02-28T02:42:51.858Z,-2.18
2023-02-28T02:46:02.829Z,-2.15
2023-02-28T02:48:54.267Z,-2.27
2023-02-28T02:51:42.861Z,-2.27
2023-02-28T02:54:35.828Z,-2.22
2023-02-28T02:57:30.153Z,-2.23
2023-02-28T03:00:21.858Z,-2.18
2023-02-28T03:03:12.897Z,-2.18
2023-02-28T03:06:01.832Z,-2.26
2023-02-28T03:08:48.880Z,-2.32
2023-02-28T03:11:38.860Z,-2.44
2023-02-28T03:14:28.768Z,-2.40
2023-02-28T03:17:46.745Z,-2.32
2023-02-28T03:20:46.434Z,-2.39
2023-02-28T03:23:43.748Z,-2.29
2023-02-28T03:26:32.430Z,-2.31
2023-02-28T03:29:28.903Z,-2.34
2023-02-28T03:32:22.678Z,-2.39
2023-02-28T03:35:23.913Z,-2.28
2023-02-28T03:38:55.595Z,-2.33
2023-02-28T03:42:00.987Z,-2.40
2023-02-28T03:44:55.924Z,-2.42
2023-02-28T03:47:56.705Z,-2.46
2023-02-28T03:50:47.117Z,-2.49
2023-02-28T03:53:38.758Z,-2.42
2023-02-28T03:56:34.870Z,-2.49
2023-02-28T03:59:29.715Z,-2.47
2023-02-28T04:02:16.831Z,-2.59
2023-02-28T04:05:04.151Z,-2.56
2023-02-28T04:07:51.225Z,-2.59
2023-02-28T04:10:39.058Z,-2.65
2023-02-28T04:13:26.120Z,-2.72
2023-02-28T04:16:18.796Z,-2.64
2023-02-28T04:19:13.634Z,-2.73
2023-02-28T04:22:00.600Z,-2.83
2023-02-28T04:24:47.605Z,-2.80
2023-02-28T04:27:35.143Z,-2.72
2023-02-28T04:30:22.249Z,-2.81
2023-02-28T04:33:09.287Z,-2.73
2023-02-28T04:36:06.192Z,-2.86
2023-02-28T04:38:53.650Z,-2.82
2023-02-28T04:41:40.759Z,-2.77
2023-02-28T04:44:28.132Z,-2.77
2023-02-28T04:47:15.226Z,-2.79
2023-02-28T04:50:02.267Z,-2.82
2023-02-28T04:52:49.322Z,-2.72
2023-02-28T04:55:36.321Z,-2.78
2023-02-28T04:58:26.233Z,-2.80
2023-02-28T05:01:34.155Z,-2.81
2023-02-28T05:04:21.186Z,-2.80
2023-02-28T05:07:08.279Z,-2.71
2023-02-28T05:09:55.336Z,-2.72
2023-02-28T05:12:42.371Z,-2.73
2023-02-28T05:15:29.489Z,-2.69
2023-02-28T05:18:16.481Z,-2.84
2023-02-28T05:21:04.257Z,-2.73
2023-02-28T05:23:51.783Z,-2.81
2023-02-28T05:26:42.479Z,-2.84
2023-02-28T05:29:29.468Z,-2.83
2023-02-28T05:32:16.748Z,-2.86
2023-02-28T05:35:04.630Z,-2.92
2023-02-28T05:37:51.981Z,-2.83
2023-02-28T05:40:44.914Z,-2.92
2023-02-28T05:43:31.978Z,-3.00
2023-02-28T05:46:19.104Z,-2.89
2023-02-28T05:49:06.454Z,-3.02
2023-02-28T05:51:53.639Z,-3.03
2023-02-28T05:54:40.702Z,-2.92
2023-02-28T05:57:27.717Z,-2.89
2023-02-28T06:00:16.806Z,-2.87
2023-02-28T06:03:03.950Z,-2.98
2023-02-28T06:05:51.613Z,-2.85
2023-02-28T06:08:38.647Z,-2.74
2023-02-28T06:11:29.269Z,-3.14
2023-02-28T06:14:18.905Z,-2.82
2023-02-28T06:17:06.243Z,-2.73
2023-02-28T06:19:53.299Z,-2.75
2023-02-28T06:22:40.852Z,-2.75
2023-02-28T06:25:28.951Z,-2.75
2023-02-28T06:28:16.160Z,-2.70
2023-02-28T06:31:15.426Z,-2.74
2023-02-28T06:34:02.532Z,-2.71
2023-02-28T06:36:52.267Z,-2.82
2023-02-28T06:39:39.402Z,-2.71
2023-02-28T06:42:29.920Z,-2.72
2023-02-28T06:45:16.996Z,-2.68
2023-02-28T06:48:04.122Z,-2.71
2023-02-28T06:50:51.684Z,-2.59
2023-02-28T06:53:39.675Z,-2.62
2023-02-28T06:56:26.784Z,-2.48
2023-02-28T06:59:14.290Z,-2.49
2023-02-28T07:02:01.433Z,-2.60
2023-02-28T07:04:48.610Z,-2.47
2023-02-28T07:07:37.441Z,-2.29
2023-02-28T07:10:24.492Z,-2.44
2023-02-28T07:13:11.703Z,-2.35
2023-02-28T07:16:04.860Z,-2.29
2023-02-28T07:18:54.287Z,-2.37
2023-02-28T07:21:41.410Z,-2.14
2023-02-28T07:24:29.476Z,-1.93
2023-02-28T07:27:24.754Z,-2.22
2023-02-28T07:30:13.231Z,-1.90
2023-02-28T07:33:00.434Z,-1.99
2023-02-28T07:35:47.612Z,-1.75
2023-02-28T07:38:36.384Z,-1.59
2023-02-28T07:41:25.829Z,-1.51
2023-02-28T07:44:13.302Z,-1.28
2023-02-28T07:47:00.649Z,-1.34
2023-02-28T07:49:47.781Z,-1.25
2023-02-28T07:52:34.867Z,-1.28
2023-02-28T07:55:21.933Z,-1.17
2023-02-28T07:58:09.066Z,-1.11
2023-02-28T08:00:56.869Z,-1.21
2023-02-28T08:03:43.874Z,-1.18
2023-02-28T08:06:30.965Z,-1.04
2023-02-28T08:09:18.042Z,-0.72
2023-02-28T08:12:05.300Z,-0.60
2023-02-28T08:14:52.385Z,-0.58
2023-02-28T08:17:39.902Z,-0.51
2023-02-28T08:20:28.119Z,-0.46
2023-02-28T08:23:15.614Z,-0.13
2023-02-28T08:26:03.295Z,0.23
2023-02-28T08:28:50.670Z,0.75
2023-02-28T08:31:37.725Z,1.02
2023-02-28T08:34:24.896Z,1.27
2023-02-28T08:37:12.361Z,1.53
2023-02-28T08:39:59.564Z,1.69
2023-02-28T08:42:47.219Z,1.58
2023-02-28T08:45:34.332Z,1.41
2023-02-28T08:48:21.420Z,1.32
2023-02-28T08:51:11.355Z,1.74
2023-02-28T08:54:01.893Z,1.91
2023-02-28T08:56:48.980Z,2.12
2023-02-28T08:59:36.079Z,2.47
2023-02-28T09:02:23.282Z,2.25
2023-02-28T09:05:10.357Z,2.23
2023-02-28T09:07:57.494Z,2.14
2023-02-28T09:10:44.534Z,2.24
2023-02-28T09:13:33.356Z,2.27
2023-02-28T09:16:20.789Z,2.49
2023-02-28T09:19:08.085Z,2.63
2023-02-28T09:21:55.150Z,2.83
2023-02-28T09:24:42.385Z,2.96
2023-02-28T09:27:29.521Z,3.13
2023-02-28T09:30:17.365Z,3.04
2023-02-28T09:33:04.864Z,3.10
2023-02-28T09:35:58.693Z,2.98
2023-02-28T09:38:48.127Z,3.11
2023-02-28T09:41:51.379Z,3.37
2023-02-28T09:44:45.393Z,3.26
2023-02-28T09:47:37.807Z,3.27
2023-02-28T09:50:27.854Z,3.37
2023-02-28T09:53:24.891Z,3.41
2023-02-28T09:56:21.203Z,3.43
2023-02-28T09:59:46.651Z,3.33
2023-02-28T10:02:39.342Z,3.24
2023-02-28T10:05:37.237Z,3.56
2023-02-28T10:08:30.252Z,3.49
2023-02-28T10:11:19.429Z,3.50
2023-02-28T10:14:12.527Z,3.19
2023-02-28T10:17:06.580Z,3.26
2023-02-28T10:19:59.985Z,3.45
2023-02-28T10:23:11.642Z,3.20
2023-02-28T10:26:06.856Z,3.05
2023-02-28T10:28:54.421Z,3.17
2023-02-28T10:31:41.956Z,3.03
2023-02-28T10:34:29.306Z,3.05
2023-02-28T10:37:16.954Z,2.90
2023-02-28T10:40:06.912Z,2.97
2023-02-28T10:43:19.547Z,2.83
2023-02-28T10:46:26.950Z,2.92
2023-02-28T10:49:22.257Z,2.92
2023-02-28T10:52:10.894Z,2.95
2023-02-28T10:55:26.284Z,3.00
2023-02-28T10:58:24.652Z,3.01
2023-02-28T11:01:39.514Z,3.29
2023-02-28T11:04:30.592Z,3.16
2023-02-28T11:07:23.147Z,3.19
2023-02-28T11:10:22.307Z,3.15
2023-02-28T11:13:21.576Z,3.30
2023-02-28T11:16:12.085Z,3.37
2023-02-28T11:19:00.965Z,3.52
2023-02-28T11:21:55.829Z,3.31
2023-02-28T11:24:47.015Z,3.47
2023-02-28T11:27:34.919Z,3.48
2023-02-28T11:30:36.740Z,3.52
2023-02-28T11:33:29.974Z,3.55
2023-02-28T11:36:17.499Z,3.50
2023-02-28T11:39:13.569Z,3.70
2023-02-28T11:42:45.541Z,3.69
2023-02-28T11:45:44.027Z,3.59
2023-02-28T11:49:03.626Z,3.82
2023-02-28T11:52:04.188Z,3.83
2023-02-28T11:55:18.684Z,3.98
2023-02-28T11:58:21.041Z,3.83
2023-02-28T12:01:18.894Z,3.77
2023-02-28T12:04:41.408Z,3.97
2023-02-28T12:07:52.869Z,3.98
2023-02-28T12:10:59.521Z,4.07
2023-02-28T12:13:59.642Z,4.10
2023-02-28T12:17:10.147Z,4.21
2023-02-28T12:20:18.066Z,4.25
2023-02-28T12:23:23.312Z,4.19
2023-02-28T12:26:25.729Z,4.35
2023-02-28T12:29:17.255Z,4.45
2023-02-28T12:32:14.828Z,4.34
2023-02-28T12:35:16.132Z,4.37
2023-02-28T12:38:35.854Z,4.48
2023-02-28T12:41:54.775Z,4.41
2023-02-28T12:44:53.494Z,4.42
2023-02-28T12:47:44.284Z,4.51
2023-02-28T12:50:32.892Z,4.58
2023-02-28T12:53:29.882Z,4.62
2023-02-28T12:56:54.956Z,4.49
2023-02-28T12:59:52.759Z,4.45
2023-02-28T13:02:53.760Z,4.64
2023-02-28T13:06:07.776Z,4.73
2023-02-28T13:09:03.567Z,4.77
2023-02-28T13:11:53.684Z,4.92
2023-02-28T13:14:41.046Z,4.90
2023-02-28T13:17:28.260Z,4.94
2023-02-28T13:20:25.124Z,4.92
2023-02-28T13:23:53.485Z,5.13
2023-02-28T13:26:40.461Z,5.11
2023-02-28T13:29:35.265Z,5.07
2023-02-28T13:32:37.739Z,5.00
2023-02-28T13:35:43.964Z,4.98
2023-02-28T13:38:41.724Z,5.05
2023-02-28T13:41:32.034Z,4.88
2023-02-28T13:44:27.889Z,4.92
2023-02-28T13:47:23.099Z,5.12
2023-02-28T13:50:30.446Z,5.19
2023-02-28T13:53:17.560Z,5.29
2023-02-28T13:56:10.186Z,5.29
2023-02-28T13:59:14.555Z,5.32
2023-02-28T14:02:04.535Z,5.31
2023-02-28T14:05:11.652Z,5.34
2023-02-28T14:08:00.809Z,5.30
2023-02-28T14:10:49.095Z,5.36
2023-02-28T14:13:48.321Z,5.51
2023-02-28T14:16:45.931Z,5.50
2023-02-28T14:19:35.413Z,5.32
2023-02-28T14:22:52.631Z,5.44
2023-02-28T14:26:11.713Z,5.20
2023-02-28T14:29:32.546Z,5.27
2023-02-28T14:32:47.778Z,5.20
2023-02-28T14:35:59.435Z,5.33
2023-02-28T14:38:53.102Z,5.22
2023-02-28T14:41:42.237Z,5.12
2023-02-28T14:44:29.603Z,4.99
2023-02-28T14:47:17.516Z,5.04
2023-02-28T14:50:06.131Z,4.87
2023-02-28T14:52:56.289Z,4.96
2023-02-28T14:55:45.706Z,4.95
2023-02-28T14:58:34.764Z,4.80
2023-02-28T15:01:25.194Z,4.83
2023-02-28T15:04:23.681Z,4.68
2023-02-28T15:07:18.313Z,4.65
2023-02-28T15:10:10.765Z,4.56
2023-02-28T15:13:02.873Z,4.59
2023-02-28T15:16:03.908Z,4.56
2023-02-28T15:18:55.424Z,4.61
2023-02-28T15:21:46.908Z,4.51
2023-02-28T15:24:41.672Z,4.53
2023-02-28T15:27:33.478Z,4.42
2023-02-28T15:30:32.203Z,4.40
2023-02-28T15:33:22.797Z,4.36
2023-02-28T15:36:18.651Z,4.12
2023-02-28T15:39:24.326Z,4.11
2023-02-28T15:42:31.003Z,4.07
2023-02-28T15:45:39.616Z,3.86
2023-02-28T15:48:38.957Z,3.68
2023-02-28T15:51:37.318Z,3.74
2023-02-28T15:54:28.610Z,3.60
2023-02-28T15:57:30.589Z,3.63
2023-02-28T16:00:22.398Z,3.54
2023-02-28T16:03:36.139Z,3.55
2023-02-28T16:06:32.112Z,3.52
2023-02-28T16:09:19.454Z,3.28
2023-02-28T16:12:07.084Z,3.32
2023-02-28T16:14:56.508Z,3.35
2023-02-28T16:17:43.789Z,3.18
2023-02-28T16:20:32.328Z,3.02
2023-02-28T16:23:19.622Z,2.84
2023-02-28T16:26:11.328Z,2.93
2023-02-28T16:28:58.757Z,2.90
2023-02-28T16:31:46.212Z,2.84
2023-02-28T16:34:33.497Z,2.81
2023-02-28T16:37:24.888Z,2.68
2023-02-28T16:40:22.487Z,2.66
2023-02-28T16:43:17.622Z,2.57
2023-02-28T16:46:05.044Z,2.40
2023-02-28T16:48:52.723Z,2.45
2023-02-28T16:51:40.682Z,2.50
2023-02-28T16:54:28.048Z,2.24
2023-02-28T16:57:24.829Z,2.25
2023-02-28T17:00:14.296Z,2.18
2023-02-28T17:03:04.599Z,2.08
2023-02-28T17:05:53.397Z,2.14
2023-02-28T17:08:40.478Z,2.11
2023-02-28T17:11:28.525Z,2.03
2023-02-28T17:14:16.585Z,2.06
2023-02-28T17:17:06.271Z,1.92
2023-02-28T17:19:53.487Z,1.82
2023-02-28T17:22:40.817Z,1.75
2023-02-28T17:25:28.292Z,1.74
2023-02-28T17:28:17.602Z,1.54
2023-02-28T17:31:05.126Z,1.38
2023-02-28T17:33:54.316Z,1.17
2023-02-28T17:36:42.683Z,1.11
2023-02-28T17:39:30.040Z,1.23
2023-02-28T17:42:20.307Z,0.93
2023-02-28T17:45:11.743Z,0.93
2023-02-28T17:48:00.289Z,0.91
2023-02-28T17:50:56.968Z,0.93
2023-02-28T17:53:45.346Z,0.57
2023-02-28T17:56:35.040Z,0.48
2023-02-28T17:59:22.336Z,0.33
2023-02-28T18:02:13.774Z,0.53
2023-02-28T18:05:04.522Z,0.50
2023-02-28T18:07:52.747Z,0.44
2023-02-28T18:10:40.720Z,0.26
2023-02-28T18:13:28.993Z,0.31
2023-02-28T18:16:18.190Z,0.17
2023-02-28T18:19:07.588Z,-0.02
2023-02-28T18:21:55.309Z,-0.06
2023-02-28T18:24:43.177Z,-0.07
2023-02-28T18:27:32.597Z,-0.11
2023-02-28T18:30:23.514Z,-0.28
2023-02-28T18:33:11.483Z,-0.09
2023-02-28T18:35:59.033Z,-0.05
2023-02-28T18:38:47.180Z,0.07
2023-02-28T18:41:35.905Z,0.26
2023-02-28T18:44:26.464Z,0.18
2023-02-28T18:47:14.786Z,0.25
2023-02-28T18:50:02.927Z,0.06
2023-02-28T18:52:51.942Z,0.30
2023-02-28T18:55:39.934Z,0.41
2023-02-28T18:58:28.198Z,0.36
2023-02-28T19:01:35.912Z,0.36
2023-02-28T19:04:24.712Z,0.41
2023-02-28T19:07:13.032Z,0.21
2023-02-28T19:10:00.930Z,0.08
2023-02-28T19:12:49.239Z,0.20
2023-02-28T19:15:38.668Z,0.17
2023-02-28T19:18:30.340Z,0.17
2023-02-28T19:21:20.114Z,0.07
2023-02-28T19:24:09.471Z,0.15
2023-02-28T19:26:57.540Z,0.28
2023-02-28T19:29:48.215Z,0.23
2023-02-28T19:32:36.431Z,0.27
2023-02-28T19:35:24.770Z,0.13
2023-02-28T19:38:12.836Z,0.25
2023-02-28T19:41:03.058Z,0.37
2023-02-28T19:43:53.351Z,0.18
2023-02-28T19:46:40.987Z,0.19
2023-02-28T19:49:28.695Z,0.09
2023-02-28T19:52:16.496Z,-0.16
2023-02-28T19:55:04.328Z,-0.28
2023-02-28T19:57:52.289Z,-0.19
2023-02-28T20:00:41.072Z,-0.31
2023-02-28T20:03:28.783Z,-0.40
2023-02-28T20:06:16.717Z,-0.46
2023-02-28T20:09:07.791Z,-0.57
2023-02-28T20:12:00.354Z,-0.51
2023-02-28T20:14:50.638Z,-0.55
2023-02-28T20:17:38.589Z,-0.49
2023-02-28T20:20:26.873Z,-0.53
2023-02-28T20:23:14.298Z,-0.67
2023-02-28T20:26:02.565Z,-0.56
2023-02-28T20:28:50.973Z,-0.62
2023-02-28T20:31:42.011Z,-0.73
2023-02-28T20:34:29.988Z,-0.56
2023-02-28T20:37:18.032Z,-0.71
2023-02-28T20:40:06.286Z,-0.73
2023-02-28T20:42:55.532Z,-0.88
2023-02-28T20:45:52.168Z,-0.86
2023-02-28T20:48:40.906Z,-0.84
2023-02-28T20:51:28.521Z,-0.79
2023-02-28T20:54:17.967Z,-0.70
2023-02-28T20:57:06.317Z,-0.80
2023-02-28T20:59:53.772Z,-0.89
2023-02-28T21:02:40.974Z,-0.83
2023-02-28T21:05:28.534Z,-0.96
2023-02-28T21:08:16.357Z,-1.00
2023-02-28T21:11:07.876Z,-1.11
2023-02-28T21:13:55.660Z,-1.19
2023-02-28T21:16:44.834Z,-1.22
2023-02-28T21:19:33.048Z,-1.23
2023-02-28T21:22:20.269Z,-1.25
2023-02-28T21:25:07.907Z,-1.33
2023-02-28T21:27:55.827Z,-1.20
2023-02-28T21:30:42.967Z,-1.39
2023-02-28T21:33:30.519Z,-1.26
2023-02-28T21:36:20.195Z,-1.43
2023-02-28T21:39:09.176Z,-1.45
2023-02-28T21:41:57.411Z,-1.41
2023-02-28T21:44:44.531Z,-1.71
2023-02-28T21:47:31.718Z,-1.73
2023-02-28T21:50:18.626Z,-1.70
2023-02-28T21:53:05.592Z,-1.71
2023-02-28T21:55:52.567Z,-1.70
2023-02-28T21:58:39.567Z,-1.75
2023-02-28T22:01:46.817Z,-1.78
2023-02-28T22:04:33.847Z,-1.70
2023-02-28T22:07:20.811Z,-1.82
2023-02-28T22:10:09.170Z,-1.84
2023-02-28T22:12:56.072Z,-1.97
2023-02-28T22:15:43.029Z,-1.98
2023-02-28T22:18:29.986Z,-2.16
2023-02-28T22:21:17.681Z,-2.22
2023-02-28T22:24:04.847Z,-2.27
2023-02-28T22:26:52.485Z,-2.25
2023-02-28T22:29:39.406Z,-2.36
2023-02-28T22:32:26.484Z,-2.34
2023-02-28T22:35:15.764Z,-2.05
2023-02-28T22:38:02.691Z,-1.84
2023-02-28T22:40:49.692Z,-1.66
2023-02-28T22:43:36.624Z,-1.57
2023-02-28T22:46:24.116Z,-1.48
2023-02-28T22:49:11.108Z,-1.43
2023-02-28T22:51:58.062Z,-1.44
2023-02-28T22:54:44.989Z,-1.38
2023-02-28T22:57:31.990Z,-1.33
2023-02-28T23:00:19.076Z,-1.30
2023-02-28T23:03:05.998Z,-1.28
2023-02-28T23:05:53.519Z,-1.16
2023-02-28T23:08:42.520Z,-1.08
2023-02-28T23:11:31.062Z,-0.99
2023-02-28T23:14:19.446Z,-1.05
2023-02-28T23:17:06.479Z,-1.09
2023-02-28T23:19:53.414Z,-0.97
2023-02-28T23:22:40.357Z,-0.98
2023-02-28T23:25:27.307Z,-0.98
2023-02-28T23:28:15.377Z,-0.96
2023-02-28T23:31:04.675Z,-0.90
2023-02-28T23:33:52.436Z,-0.90
2023-02-28T23:36:40.039Z,-0.99
2023-02-28T23:39:27.952Z,-0.98
2023-02-28T23:42:15.116Z,-0.98
2023-02-28T23:45:02.450Z,-1.06
2023-02-28T23:47:49.702Z,-1.07
2023-02-28T23:50:37.876Z,-1.00
2023-02-28T23:53:25.079Z,-1.09
2023-02-28T23:56:14.863Z,-1.06
2023-02-28T23:59:01.873Z,-0.97
